Time;durP1;ratioP1;P1;durP2;ratioP2;P2;SDS_P1;SDS_P2;PMS_P1;PMS_P2;Temp;Humidity;BMP_temperature;BMP_pressure;BME280_temperature;BME280_humidity;BME280_pressure;Samples;Min_cycle;Max_cycle;Signal;HPM_P1;HPM_P2
2024/01/30 00:00:18;;;;;;;1.83;0.70;;;14.70;70.20;;;;;;5022100;28;20484;-78
2024/01/30 00:02:45;;;;;;;3.10;1.17;;;14.70;70.30;;;;;;5016373;28;20033;-76
2024/01/30 00:05:12;;;;;;;2.85;0.70;;;14.70;70.30;;;;;;5041148;28;20028;-78
2024/01/30 00:07:39;;;;;;;2.65;0.98;;;14.70;70.40;;;;;;5040330;28;20024;-77
2024/01/30 00:10:10;;;;;;;2.35;0.65;;;14.70;70.40;;;;;;5023565;28;20048;-76
2024/01/30 00:12:39;;;;;;;2.50;1.10;;;14.70;70.40;;;;;;5022581;28;20065;-77
2024/01/30 00:15:08;;;;;;;1.48;0.50;;;14.70;70.40;;;;;;5041627;28;20522;-77
2024/01/30 00:17:36;;;;;;;2.05;0.85;;;14.70;70.40;;;;;;5021791;28;20543;-77
2024/01/30 00:20:05;;;;;;;3.25;0.80;;;14.60;70.20;;;;;;5039944;28;20487;-78
2024/01/30 00:22:32;;;;;;;0.95;0.85;;;14.60;70.20;;;;;;5004595;28;20327;-77
2024/01/30 00:24:59;;;;;;;2.25;0.73;;;14.60;70.30;;;;;;5040273;28;20445;-77
2024/01/30 00:27:29;;;;;;;2.40;0.88;;;14.60;70.30;;;;;;5023102;28;20112;-78
2024/01/30 00:29:58;;;;;;;1.35;1.25;;;14.60;70.30;;;;;;5038949;28;20029;-79
2024/01/30 00:32:27;;;;;;;1.55;0.65;;;14.50;70.10;;;;;;5037184;28;20025;-77
2024/01/30 00:34:54;;;;;;;2.00;0.70;;;14.50;70.20;;;;;;5036646;28;20139;-78
2024/01/30 00:37:20;;;;;;;2.25;0.80;;;14.50;70.20;;;;;;5036813;28;20041;-77
2024/01/30 00:39:47;;;;;;;2.17;0.65;;;14.40;70.00;;;;;;5038301;28;20029;-77
2024/01/30 00:42:12;;;;;;;2.80;1.27;;;14.50;70.30;;;;;;5022460;28;20020;-77
2024/01/30 00:44:39;;;;;;;1.73;0.57;;;14.40;70.00;;;;;;5019105;28;20037;-77
2024/01/30 00:47:05;;;;;;;0.70;0.55;;;14.40;70.00;;;;;;5020668;28;20056;-77
2024/01/30 00:49:35;;;;;;;1.73;0.60;;;14.40;70.10;;;;;;5018761;28;20472;-78
2024/01/30 00:52:01;;;;;;;2.22;0.80;;;14.40;70.10;;;;;;5000571;28;20385;-78
2024/01/30 00:54:29;;;;;;;1.48;1.00;;;14.30;70.00;;;;;;5015616;28;20036;-77
2024/01/30 00:57:00;;;;;;;2.05;1.13;;;14.30;69.90;;;;;;5016354;28;20047;-78
2024/01/30 00:59:26;;;;;;;3.75;0.95;;;14.30;70.00;;;;;;5038923;28;20025;-77
2024/01/30 01:01:56;;;;;;;2.92;1.05;;;14.20;69.80;;;;;;5038476;28;20036;-77
2024/01/30 01:04:22;;;;;;;3.25;1.35;;;14.20;69.80;;;;;;5021640;28;20280;-76
2024/01/30 01:06:49;;;;;;;3.13;0.95;;;14.20;69.80;;;;;;5035317;28;20566;-76
2024/01/30 01:09:16;;;;;;;3.88;1.10;;;14.10;69.60;;;;;;5039336;28;20028;-76
2024/01/30 01:11:43;;;;;;;3.53;1.40;;;14.10;69.60;;;;;;5039371;28;20143;-77
2024/01/30 01:14:10;;;;;;;3.78;1.95;;;14.10;69.70;;;;;;5037489;28;20643;-76
2024/01/30 01:16:37;;;;;;;3.20;1.17;;;14.10;69.60;;;;;;5038881;28;20025;-78
2024/01/30 01:19:04;;;;;;;3.38;1.55;;;14.00;69.50;;;;;;5035894;28;20479;-77
2024/01/30 01:21:30;;;;;;;2.95;1.73;;;14.00;69.40;;;;;;5039743;28;20503;-77
2024/01/30 01:23:57;;;;;;;2.30;1.50;;;14.00;69.40;;;;;;5002096;28;20460;-77
2024/01/30 01:26:23;;;;;;;3.38;1.85;;;13.90;69.30;;;;;;5019381;28;20461;-77
2024/01/30 01:28:50;;;;;;;3.00;1.45;;;13.90;69.30;;;;;;5018650;28;20029;-76
2024/01/30 01:31:17;;;;;;;4.28;1.80;;;13.90;69.30;;;;;;5035191;28;20476;-78
2024/01/30 01:33:44;;;;;;;2.83;1.60;;;13.90;69.30;;;;;;5038699;28;20068;-77
2024/01/30 01:36:14;;;;;;;4.10;1.80;;;13.80;69.10;;;;;;5038213;28;20119;-79
2024/01/30 01:38:40;;;;;;;3.78;1.55;;;13.70;69.00;;;;;;5017327;28;20029;-77
2024/01/30 01:41:07;;;;;;;3.97;1.63;;;13.70;69.00;;;;;;5036841;28;20029;-77
2024/01/30 01:43:39;;;;;;;3.53;1.60;;;13.60;68.90;;;;;;5036380;28;20555;-77
2024/01/30 01:46:08;;;;;;;2.63;1.40;;;13.60;68.90;;;;;;5014797;28;20028;-77
2024/01/30 01:48:34;;;;;;;2.72;1.55;;;13.60;68.90;;;;;;5018802;28;20199;-79
2024/01/30 01:51:02;;;;;;;7.88;3.40;;;13.60;68.90;;;;;;5035683;28;20125;-76
2024/01/30 01:53:28;;;;;;;5.95;1.60;;;13.50;68.70;;;;;;5031387;28;20025;-77
2024/01/30 01:55:55;;;;;;;5.03;1.58;;;13.50;68.70;;;;;;5037353;28;20034;-76
2024/01/30 01:58:22;;;;;;;3.05;1.50;;;13.50;68.70;;;;;;5039842;28;20102;-76
2024/01/30 02:00:48;;;;;;;3.50;1.90;;;13.40;68.60;;;;;;5040425;28;20126;-78
2024/01/30 02:03:21;;;;;;;3.60;1.52;;;13.40;68.60;;;;;;5039833;28;20032;-77
2024/01/30 02:05:47;;;;;;;3.40;2.15;;;13.40;68.60;;;;;;5040091;28;20045;-78
2024/01/30 02:08:13;;;;;;;4.25;2.15;;;13.40;68.60;;;;;;5040191;28;20021;-77
2024/01/30 02:10:40;;;;;;;5.10;1.70;;;13.30;68.50;;;;;;5039641;28;20523;-78
2024/01/30 02:13:05;;;;;;;2.20;1.38;;;13.30;68.50;;;;;;5022107;28;20033;-79
2024/01/30 02:15:32;;;;;;;3.47;1.55;;;13.30;68.50;;;;;;5022136;28;20112;-77
2024/01/30 02:17:58;;;;;;;1.98;1.50;;;13.20;68.90;;;;;;5039722;28;20104;-77
2024/01/30 02:20:27;;;;;;;2.05;1.23;;;13.20;68.30;;;;;;5037978;28;20188;-75
2024/01/30 02:22:55;;;;;;;3.08;1.60;;;13.20;68.40;;;;;;5040886;28;20032;-79
2024/01/30 02:25:33;;;;;;;2.88;1.35;;;13.20;68.40;;;;;;5040490;28;20480;-78
2024/01/30 02:28:00;;;;;;;2.80;1.65;;;13.20;68.40;;;;;;5038512;28;20142;-77
2024/01/30 02:30:26;;;;;;;3.75;1.70;;;13.10;68.20;;;;;;5038491;28;20032;-77
2024/01/30 02:32:52;;;;;;;2.35;1.30;;;13.10;68.30;;;;;;5037947;28;20033;-77
2024/01/30 02:35:18;;;;;;;3.08;1.27;;;13.00;68.10;;;;;;5041098;28;20037;-76
2024/01/30 02:37:44;;;;;;;2.45;1.33;;;13.00;68.10;;;;;;5040651;28;20030;-77
2024/01/30 02:40:11;;;;;;;3.42;1.70;;;13.00;68.10;;;;;;5044073;28;20045;-77
2024/01/30 02:42:41;;;;;;;2.55;1.17;;;12.90;68.00;;;;;;5042851;28;20428;-77
2024/01/30 02:45:08;;;;;;;3.67;0.90;;;12.90;68.00;;;;;;5023026;28;20357;-77
2024/01/30 02:47:36;;;;;;;1.20;0.85;;;12.90;68.00;;;;;;5045504;28;20048;-77
2024/01/30 02:50:03;;;;;;;1.38;1.02;;;12.90;68.00;;;;;;5035859;28;20056;-76
2024/01/30 02:52:36;;;;;;;1.63;0.82;;;12.80;67.80;;;;;;5046696;28;20339;-78
2024/01/30 02:55:03;;;;;;;2.20;0.90;;;12.80;67.90;;;;;;5023192;28;20495;-77
2024/01/30 02:57:29;;;;;;;1.30;0.75;;;12.80;67.90;;;;;;5046979;28;20523;-77
2024/01/30 02:59:56;;;;;;;1.13;0.57;;;12.80;67.90;;;;;;5047066;28;20127;-77
2024/01/30 03:02:21;;;;;;;0.98;0.60;;;12.70;67.70;;;;;;5046632;28;20567;-77
2024/01/30 03:04:48;;;;;;;1.35;0.68;;;12.70;67.70;;;;;;5048340;28;20108;-78
2024/01/30 03:07:14;;;;;;;2.17;0.70;;;12.70;67.80;;;;;;5027799;28;20172;-78
2024/01/30 03:09:42;;;;;;;1.63;0.60;;;12.70;67.80;;;;;;5028764;28;20040;-78
2024/01/30 03:12:09;;;;;;;2.20;0.80;;;12.70;68.30;;;;;;5028332;28;20450;-77
2024/01/30 03:14:37;;;;;;;1.00;0.60;;;12.60;67.60;;;;;;5028702;28;20227;-78
2024/01/30 03:17:04;;;;;;;0.70;0.57;;;12.60;67.60;;;;;;5042167;28;20264;-78
2024/01/30 03:19:30;;;;;;;1.40;0.57;;;12.60;67.60;;;;;;5029996;28;20025;-77
2024/01/30 03:21:56;;;;;;;1.17;0.68;;;12.60;67.60;;;;;;5044371;28;20442;-78
2024/01/30 03:24:23;;;;;;;1.98;0.50;;;12.60;67.60;;;;;;5046571;28;20368;-77
2024/01/30 03:26:49;;;;;;;0.47;0.47;;;12.50;67.40;;;;;;5048524;28;20472;-77
2024/01/30 03:29:15;;;;;;;0.73;0.57;;;12.50;67.40;;;;;;5045234;28;20029;-79
2024/01/30 03:31:42;;;;;;;1.20;0.50;;;12.50;67.40;;;;;;5045608;28;20454;-78
2024/01/30 03:34:09;;;;;;;1.73;0.50;;;12.50;67.40;;;;;;5025299;28;20040;-77
2024/01/30 03:36:35;;;;;;;2.10;0.77;;;12.50;67.40;;;;;;5045051;28;20025;-78
2024/01/30 03:39:02;;;;;;;1.02;0.73;;;12.40;67.20;;;;;;5045589;28;20254;-77
2024/01/30 03:41:28;;;;;;;0.65;0.40;;;12.40;67.20;;;;;;5044389;28;20092;-77
2024/01/30 03:43:54;;;;;;;3.15;0.60;;;12.40;67.20;;;;;;5028226;28;20033;-77
2024/01/30 03:46:21;;;;;;;2.03;0.90;;;12.40;67.20;;;;;;5046461;28;20457;-79
2024/01/30 03:48:47;;;;;;;1.20;0.47;;;12.40;67.20;;;;;;5042747;28;20053;-77
2024/01/30 03:51:15;;;;;;;0.70;0.40;;;12.40;67.20;;;;;;5047427;28;20032;-78
2024/01/30 03:53:42;;;;;;;1.25;0.60;;;12.40;67.20;;;;;;5043182;28;20094;-78
2024/01/30 03:56:08;;;;;;;1.23;0.80;;;12.40;67.20;;;;;;5042825;28;20025;-78
2024/01/30 03:58:34;;;;;;;0.80;0.80;;;12.30;66.90;;;;;;5044673;28;20491;-78
2024/01/30 04:01:01;;;;;;;0.80;0.60;;;12.40;67.10;;;;;;5046555;28;20021;-77
2024/01/30 04:03:27;;;;;;;2.65;0.80;;;12.30;66.90;;;;;;5028110;28;20498;-78
2024/01/30 04:05:53;;;;;;;2.35;0.73;;;12.30;66.90;;;;;;5045400;28;20048;-76
2024/01/30 04:08:20;;;;;;;1.65;0.80;;;12.30;66.90;;;;;;5045174;28;20105;-77
2024/01/30 04:10:47;;;;;;;2.38;0.88;;;12.30;66.90;;;;;;5043434;28;20040;-77
2024/01/30 04:13:13;;;;;;;1.60;0.60;;;12.30;66.90;;;;;;5045227;28;20036;-78
2024/01/30 04:15:39;;;;;;;1.48;0.70;;;12.20;66.70;;;;;;5046653;28;20033;-80
2024/01/30 04:18:06;;;;;;;1.77;0.77;;;12.20;66.70;;;;;;5045145;28;20170;-77
2024/01/30 04:20:32;;;;;;;1.40;0.88;;;12.20;66.70;;;;;;5043522;28;20385;-75
2024/01/30 04:22:59;;;;;;;1.80;0.90;;;12.20;66.70;;;;;;5042879;28;21577;-78
2024/01/30 04:25:25;;;;;;;2.30;0.70;;;12.20;66.70;;;;;;5044518;28;20261;-76
2024/01/30 04:27:51;;;;;;;2.10;0.80;;;12.20;66.70;;;;;;5042441;28;20512;-78
2024/01/30 04:30:17;;;;;;;1.40;0.77;;;12.20;66.70;;;;;;5045478;28;20040;-77
2024/01/30 04:32:43;;;;;;;1.33;1.00;;;12.10;66.60;;;;;;5044244;28;20079;-78
2024/01/30 04:35:10;;;;;;;1.98;0.93;;;12.10;67.00;;;;;;5046074;28;20136;-77
2024/01/30 04:37:36;;;;;;;1.38;1.13;;;12.10;66.50;;;;;;5026770;28;20495;-76
2024/01/30 04:40:04;;;;;;;2.85;1.10;;;12.10;66.50;;;;;;5028077;28;20029;-77
2024/01/30 04:42:31;;;;;;;2.70;1.38;;;12.10;66.50;;;;;;5045147;28;20017;-77
2024/01/30 04:44:57;;;;;;;1.33;0.80;;;12.10;66.50;;;;;;5045256;28;20491;-77
2024/01/30 04:47:23;;;;;;;3.17;1.10;;;12.10;66.60;;;;;;5044628;28;20132;-77
2024/01/30 04:49:50;;;;;;;2.60;0.95;;;12.10;66.70;;;;;;5043494;28;20568;-77
2024/01/30 04:52:16;;;;;;;2.95;1.30;;;12.00;66.40;;;;;;5025953;28;20114;-77
2024/01/30 04:54:42;;;;;;;2.50;1.27;;;12.00;66.40;;;;;;5040559;28;20162;-79
2024/01/30 04:57:12;;;;;;;3.05;1.42;;;12.00;66.40;;;;;;5045766;28;20066;-77
2024/01/30 04:59:40;;;;;;;1.45;1.20;;;12.00;66.40;;;;;;5028294;28;20024;-76
2024/01/30 05:02:06;;;;;;;2.20;1.08;;;12.00;66.40;;;;;;5045752;28;20025;-77
2024/01/30 05:04:33;;;;;;;2.00;1.10;;;11.90;66.20;;;;;;5026561;28;20033;-77
2024/01/30 05:07:01;;;;;;;2.28;1.30;;;11.90;66.20;;;;;;5026088;28;20100;-78
2024/01/30 05:09:28;;;;;;;2.58;1.10;;;11.90;66.20;;;;;;5045445;28;21844;-77
2024/01/30 05:11:54;;;;;;;2.53;1.20;;;11.90;66.20;;;;;;5040362;28;20025;-77
2024/01/30 05:14:20;;;;;;;1.73;1.27;;;11.90;66.20;;;;;;5045116;28;20036;-77
2024/01/30 05:16:47;;;;;;;2.08;1.42;;;11.90;66.20;;;;;;5045507;28;20522;-77
2024/01/30 05:19:14;;;;;;;2.65;1.38;;;11.90;66.20;;;;;;5045766;28;20032;-78
2024/01/30 05:21:41;;;;;;;2.80;1.40;;;11.90;66.70;;;;;;5027013;28;20029;-78
2024/01/30 05:24:10;;;;;;;3.65;1.45;;;11.80;66.00;;;;;;5044460;28;20123;-78
2024/01/30 05:26:37;;;;;;;4.88;1.65;;;11.80;66.00;;;;;;5046160;28;20060;-78
2024/01/30 05:29:03;;;;;;;4.32;1.63;;;11.80;66.00;;;;;;5027409;28;20036;-76
2024/01/30 05:31:30;;;;;;;3.15;1.38;;;11.80;66.00;;;;;;5044001;28;20230;-77
2024/01/30 05:33:56;;;;;;;2.42;0.93;;;11.80;66.00;;;;;;5043561;28;20559;-76
2024/01/30 05:36:22;;;;;;;3.90;1.38;;;11.80;66.00;;;;;;5044659;28;20067;-78
2024/01/30 05:38:48;;;;;;;2.83;1.70;;;11.80;66.00;;;;;;5041923;28;20195;-77
2024/01/30 05:41:15;;;;;;;2.38;1.13;;;11.80;66.00;;;;;;5043053;28;20028;-78
2024/01/30 05:43:42;;;;;;;3.08;2.10;;;11.80;66.00;;;;;;5026448;28;20033;-77
2024/01/30 05:46:08;;;;;;;3.78;1.60;;;11.80;66.00;;;;;;5044313;28;20020;-76
2024/01/30 05:48:35;;;;;;;1.42;1.30;;;11.80;66.00;;;;;;5037344;28;20059;-76
2024/01/30 05:51:02;;;;;;;2.75;1.80;;;11.80;66.00;;;;;;5021761;28;20051;-76
2024/01/30 05:53:29;;;;;;;5.25;1.90;;;11.80;66.00;;;;;;5037574;28;20049;-78
2024/01/30 05:55:56;;;;;;;3.53;1.52;;;11.80;66.00;;;;;;5035793;28;20029;-75
2024/01/30 05:58:22;;;;;;;3.67;1.75;;;11.80;66.00;;;;;;5040118;28;20328;-77
2024/01/30 06:00:48;;;;;;;3.97;2.08;;;11.70;65.80;;;;;;5003893;28;20599;-76
2024/01/30 06:03:14;;;;;;;4.18;2.22;;;11.80;66.00;;;;;;5034543;28;20384;-76
2024/01/30 06:05:41;;;;;;;5.18;2.42;;;11.70;65.80;;;;;;5034760;28;20039;-76
2024/01/30 06:08:07;;;;;;;3.90;2.10;;;11.70;66.00;;;;;;5038032;28;20033;-77
2024/01/30 06:10:33;;;;;;;6.32;2.83;;;11.70;65.80;;;;;;5020864;28;20098;-77
2024/01/30 06:12:59;;;;;;;5.68;2.88;;;11.70;65.80;;;;;;5038246;28;20037;-77
2024/01/30 06:15:26;;;;;;;6.53;2.97;;;11.70;65.80;;;;;;5019739;28;20051;-77
2024/01/30 06:17:52;;;;;;;5.70;3.45;;;11.70;65.80;;;;;;5022058;28;20366;-78
2024/01/30 06:20:18;;;;;;;7.72;3.00;;;11.70;65.80;;;;;;5044353;28;20027;-76
2024/01/30 06:22:43;;;;;;;10.48;4.38;;;11.70;65.80;;;;;;5041712;28;20205;-77
2024/01/30 06:25:12;;;;;;;6.88;2.53;;;11.70;65.90;;;;;;5025801;28;20467;-78
2024/01/30 06:27:38;;;;;;;5.72;2.70;;;11.70;65.90;;;;;;5023801;28;20033;-79
2024/01/30 06:30:05;;;;;;;9.55;3.80;;;11.60;65.70;;;;;;5039084;28;20036;-78
2024/01/30 06:32:34;;;;;;;7.15;3.45;;;11.70;65.90;;;;;;5036888;28;20088;-77
2024/01/30 06:35:01;;;;;;;5.72;3.25;;;11.60;65.70;;;;;;5023095;28;20072;-77
2024/01/30 06:37:31;;;;;;;9.55;4.05;;;11.60;65.70;;;;;;5036572;28;20025;-77
2024/01/30 06:39:58;;;;;;;7.05;3.13;;;11.60;65.70;;;;;;5040820;28;20039;-77
2024/01/30 06:42:24;;;;;;;10.27;3.22;;;11.60;65.80;;;;;;5043758;28;20025;-78
2024/01/30 06:44:54;;;;;;;4.80;2.78;;;11.60;65.80;;;;;;5043185;28;20033;-78
2024/01/30 06:47:20;;;;;;;9.02;3.97;;;11.50;65.60;;;;;;5047781;28;20052;-79
2024/01/30 06:49:47;;;;;;;7.95;4.07;;;11.60;65.80;;;;;;5035423;28;20178;-78
2024/01/30 06:52:14;;;;;;;7.43;3.30;;;11.50;65.70;;;;;;5018539;28;20040;-79
2024/01/30 06:54:40;;;;;;;6.13;3.08;;;11.50;65.70;;;;;;5035978;28;20300;-76
2024/01/30 06:57:11;;;;;;;6.55;3.65;;;11.50;66.00;;;;;;5035585;28;20032;-77
2024/01/30 06:59:44;;;;;;;8.73;3.50;;;11.50;66.20;;;;;;5041860;28;20036;-77
2024/01/30 07:02:14;;;;;;;8.07;3.90;;;11.50;66.40;;;;;;5044127;28;20036;-77
2024/01/30 07:04:41;;;;;;;8.23;3.75;;;11.50;66.40;;;;;;5016722;28;20041;-78
2024/01/30 07:07:14;;;;;;;10.60;3.63;;;11.60;66.60;;;;;;5022786;28;20033;-77
2024/01/30 07:09:41;;;;;;;12.80;4.47;;;11.50;66.50;;;;;;5039173;28;20048;-76
2024/01/30 07:12:08;;;;;;;9.02;3.95;;;11.60;66.80;;;;;;5036384;28;20030;-77
2024/01/30 07:14:35;;;;;;;10.32;3.85;;;11.60;67.10;;;;;;5033389;28;20033;-78
2024/01/30 07:17:02;;;;;;;11.48;4.72;;;11.60;67.20;;;;;;5014547;28;20060;-79
2024/01/30 07:19:32;;;;;;;11.35;3.92;;;11.60;67.40;;;;;;5015352;28;21518;-77
2024/01/30 07:21:58;;;;;;;10.27;4.28;;;11.60;67.60;;;;;;5014944;28;20025;-76
2024/01/30 07:24:25;;;;;;;9.73;4.70;;;11.70;68.30;;;;;;5033841;28;20048;-75
2024/01/30 07:26:52;;;;;;;11.45;5.20;;;11.70;68.80;;;;;;5031723;28;20139;-75
2024/01/30 07:29:18;;;;;;;14.63;5.15;;;11.80;69.30;;;;;;5033900;28;20565;-75
2024/01/30 07:31:45;;;;;;;6.72;3.30;;;12.00;69.80;;;;;;5029170;28;20051;-75
2024/01/30 07:34:12;;;;;;;8.30;2.97;;;12.10;70.00;;;;;;5013917;28;20545;-76
2024/01/30 07:36:38;;;;;;;10.15;3.03;;;12.20;70.20;;;;;;5036912;28;20021;-76
2024/01/30 07:39:03;;;;;;;7.22;3.13;;;12.40;70.40;;;;;;5015667;28;20082;-76
2024/01/30 07:41:29;;;;;;;6.72;2.60;;;12.60;70.70;;;;;;5032857;28;20505;-74
2024/01/30 07:43:55;;;;;;;9.40;2.97;;;12.70;70.70;;;;;;5036553;28;20282;-75
2024/01/30 07:46:22;;;;;;;9.27;4.22;;;12.80;70.70;;;;;;5034338;28;20084;-76
2024/01/30 07:48:50;;;;;;;10.75;3.30;;;12.90;70.70;;;;;;5032483;28;20102;-76
2024/01/30 07:51:16;;;;;;;10.05;3.42;;;13.10;70.90;;;;;;5014826;28;20561;-76
2024/01/30 07:53:42;;;;;;;7.90;2.63;;;13.20;71.00;;;;;;5037775;28;20072;-76
2024/01/30 07:56:08;;;;;;;6.80;2.38;;;13.30;70.90;;;;;;5036434;28;20055;-76
2024/01/30 07:58:34;;;;;;;6.65;2.13;;;13.40;71.00;;;;;;5040945;28;20571;-77
2024/01/30 08:01:00;;;;;;;5.75;2.80;;;13.50;71.00;;;;;;5037631;28;20025;-77
2024/01/30 08:03:27;;;;;;;4.50;1.90;;;13.60;71.00;;;;;;5040795;28;20029;-77
2024/01/30 08:05:56;;;;;;;9.18;3.00;;;13.80;71.20;;;;;;5036849;28;20029;-76
2024/01/30 08:08:22;;;;;;;6.93;3.03;;;13.80;71.10;;;;;;5032174;28;20033;-75
2024/01/30 08:10:50;;;;;;;8.73;2.63;;;13.90;71.10;;;;;;5018304;28;20060;-76
2024/01/30 08:13:17;;;;;;;5.85;1.90;;;14.00;71.10;;;;;;5000058;28;20029;-75
2024/01/30 08:15:43;;;;;;;5.50;2.33;;;14.10;71.10;;;;;;5014245;28;20411;-75
2024/01/30 08:18:09;;;;;;;7.75;2.38;;;14.20;71.10;;;;;;5011699;28;20221;-75
2024/01/30 08:20:35;;;;;;;9.52;3.20;;;14.30;71.10;;;;;;5028628;28;20055;-76
2024/01/30 08:23:01;;;;;;;5.82;2.25;;;14.30;70.90;;;;;;5012290;28;20024;-77
2024/01/30 08:25:27;;;;;;;8.32;2.40;;;14.40;70.90;;;;;;5017179;28;20032;-75
2024/01/30 08:27:57;;;;;;;4.85;2.38;;;14.40;70.80;;;;;;5014380;28;20648;-74
2024/01/30 08:30:27;;;;;;;7.43;2.30;;;14.50;70.80;;;;;;5011558;28;20029;-75
2024/01/30 08:32:53;;;;;;;5.53;2.55;;;14.60;70.80;;;;;;5035985;28;20627;-75
2024/01/30 08:35:19;;;;;;;4.18;1.92;;;14.70;70.80;;;;;;5036019;28;20056;-76
2024/01/30 08:37:45;;;;;;;5.00;2.45;;;14.70;70.60;;;;;;5035083;28;20090;-77
2024/01/30 08:40:11;;;;;;;7.70;2.85;;;14.70;70.40;;;;;;5016647;28;20116;-76
2024/01/30 08:42:37;;;;;;;8.77;2.30;;;14.80;70.50;;;;;;5017851;28;20032;-76
2024/01/30 08:45:04;;;;;;;5.50;1.98;;;14.90;70.40;;;;;;5035567;28;20063;-76
2024/01/30 08:47:31;;;;;;;10.98;2.30;;;15.00;70.30;;;;;;5017175;28;20045;-75
2024/01/30 08:49:57;;;;;;;5.47;1.80;;;15.00;70.10;;;;;;5033009;28;20099;-76
2024/01/30 08:52:23;;;;;;;4.85;1.70;;;15.10;70.10;;;;;;5018803;28;20551;-75
2024/01/30 08:54:49;;;;;;;4.05;2.33;;;15.10;70.00;;;;;;5008743;28;20132;-76
2024/01/30 08:57:16;;;;;;;6.70;2.38;;;15.20;69.90;;;;;;5034298;28;20271;-75
2024/01/30 08:59:44;;;;;;;4.43;1.90;;;15.20;69.80;;;;;;5036117;28;20033;-76
2024/01/30 09:02:12;;;;;;;7.22;2.33;;;15.20;69.60;;;;;;5019386;28;20047;-76
2024/01/30 09:04:39;;;;;;;7.43;2.67;;;15.30;69.70;;;;;;5036324;28;20028;-78
2024/01/30 09:07:08;;;;;;;5.30;2.97;;;15.30;69.50;;;;;;5035145;28;20037;-76
2024/01/30 09:09:34;;;;;;;4.72;1.98;;;15.40;69.50;;;;;;5016208;28;20607;-77
2024/01/30 09:12:06;;;;;;;6.07;2.20;;;15.40;69.30;;;;;;5039046;28;20063;-77
2024/01/30 09:14:32;;;;;;;2.85;1.70;;;15.50;69.30;;;;;;5032512;28;20045;-75
2024/01/30 09:16:58;;;;;;;5.10;2.05;;;15.50;69.20;;;;;;5033567;28;20484;-77
2024/01/30 09:19:25;;;;;;;7.15;2.47;;;15.60;69.20;;;;;;5033481;28;20039;-79
2024/01/30 09:21:51;;;;;;;8.93;3.63;;;15.60;69.00;;;;;;5035606;28;20029;-78
2024/01/30 09:24:17;;;;;;;8.98;2.30;;;15.70;68.80;;;;;;5030634;28;20601;-78
2024/01/30 09:26:44;;;;;;;5.93;2.30;;;15.70;68.40;;;;;;5008043;28;20488;-79
2024/01/30 09:29:10;;;;;;;8.00;2.28;;;15.70;68.10;;;;;;5000214;28;20036;-79
2024/01/30 09:31:37;;;;;;;5.25;2.13;;;15.70;67.90;;;;;;5029685;28;20538;-79
2024/01/30 09:34:10;;;;;;;3.70;1.98;;;15.60;67.70;;;;;;5030675;28;20048;-78
2024/01/30 09:36:37;;;;;;;5.13;2.13;;;15.60;67.70;;;;;;5010894;28;20760;-78
2024/01/30 09:39:04;;;;;;;6.07;1.80;;;15.50;67.50;;;;;;5037955;28;20040;-78
2024/01/30 09:41:34;;;;;;;4.93;1.70;;;15.50;67.60;;;;;;5036497;28;20674;-78
2024/01/30 09:44:02;;;;;;;5.78;3.28;;;15.50;67.60;;;;;;5006374;28;20394;-77
2024/01/30 09:46:32;;;;;;;6.30;1.90;;;15.40;67.30;;;;;;5031941;28;20120;-79
2024/01/30 09:48:58;;;;;;;5.65;2.00;;;15.40;67.30;;;;;;5029979;28;20338;-75
2024/01/30 09:51:30;;;;;;;5.45;1.85;;;15.40;67.30;;;;;;5016338;28;20068;-77
2024/01/30 09:53:57;;;;;;;4.95;2.50;;;15.40;67.30;;;;;;5028212;28;20167;-76
2024/01/30 09:56:23;;;;;;;6.15;2.08;;;15.30;67.10;;;;;;5011437;28;20110;-78
2024/01/30 09:58:50;;;;;;;5.40;2.15;;;15.40;67.30;;;;;;5017244;28;20616;-77
2024/01/30 10:01:21;;;;;;;8.32;4.28;;;15.40;67.30;;;;;;5038139;28;20052;-76
2024/01/30 10:03:47;;;;;;;5.38;1.80;;;15.30;67.00;;;;;;5044603;28;20040;-78
2024/01/30 10:06:17;;;;;;;5.55;2.28;;;15.30;67.00;;;;;;5042951;28;20043;-77
2024/01/30 10:08:44;;;;;;;4.45;2.28;;;15.30;66.90;;;;;;5035944;28;20060;-79
2024/01/30 10:11:10;;;;;;;4.03;2.35;;;15.40;67.00;;;;;;5018833;28;20025;-79
2024/01/30 10:13:39;;;;;;;4.93;1.90;;;15.30;66.70;;;;;;5002203;28;20041;-78
2024/01/30 10:16:13;;;;;;;4.20;1.67;;;15.30;66.70;;;;;;5036498;28;20029;-78
2024/01/30 10:18:43;;;;;;;6.65;2.13;;;15.40;66.80;;;;;;5017740;28;20063;-77
2024/01/30 10:21:10;;;;;;;5.32;1.77;;;15.30;66.60;;;;;;5035098;28;20116;-78
2024/01/30 10:23:38;;;;;;;4.32;1.83;;;15.30;66.60;;;;;;5025071;28;20499;-77
2024/01/30 10:26:07;;;;;;;5.60;2.10;;;15.30;66.50;;;;;;5045716;28;20313;-78
2024/01/30 10:28:34;;;;;;;7.22;2.50;;;15.40;66.60;;;;;;5016571;28;20099;-77
2024/01/30 10:31:00;;;;;;;4.32;1.40;;;15.30;66.30;;;;;;5027828;28;20032;-77
2024/01/30 10:33:27;;;;;;;3.53;1.50;;;15.30;66.30;;;;;;5022663;28;20033;-77
2024/01/30 10:35:59;;;;;;;7.32;2.53;;;15.30;66.20;;;;;;5014069;28;20303;-77
2024/01/30 10:38:30;;;;;;;6.50;2.10;;;15.30;66.10;;;;;;5018854;28;20511;-77
2024/01/30 10:40:57;;;;;;;10.27;3.38;;;15.30;66.20;;;;;;5037026;28;20072;-76
2024/01/30 10:43:35;;;;;;;7.25;2.42;;;15.30;66.10;;;;;;5019744;28;20033;-79
2024/01/30 10:46:23;;;;;;;14.32;3.22;;;15.30;66.00;;;;;;5029093;28;20514;-77
2024/01/30 10:49:00;;;;;;;6.38;2.15;;;15.30;66.00;;;;;;5033743;28;20049;-78
2024/01/30 10:51:27;;;;;;;7.57;2.03;;;15.30;65.90;;;;;;5039764;28;20038;-79
2024/01/30 10:54:00;;;;;;;9.35;2.67;;;15.30;65.90;;;;;;5016894;28;20026;-78
2024/01/30 10:56:27;;;;;;;6.97;1.95;;;15.30;65.90;;;;;;5013958;28;20033;-78
2024/01/30 10:58:55;;;;;;;4.47;1.95;;;15.30;65.90;;;;;;5035906;28;20099;-78
2024/01/30 11:01:25;;;;;;;7.63;2.55;;;15.40;66.00;;;;;;5041303;28;20071;-77
2024/01/30 11:03:52;;;;;;;6.70;2.88;;;15.30;65.70;;;;;;5036541;28;20540;-79
2024/01/30 11:06:23;;;;;;;6.03;2.22;;;15.40;65.80;;;;;;5037720;28;20067;-79
2024/01/30 11:09:09;;;;;;;6.93;2.00;;;15.40;65.70;;;;;;5043505;28;20035;-78
2024/01/30 11:11:49;;;;;;;8.13;2.55;;;15.40;65.50;;;;;;5029101;28;20238;-78
2024/01/30 11:14:25;;;;;;;5.45;2.03;;;15.40;65.40;;;;;;5017877;28;20045;-78
2024/01/30 11:16:52;;;;;;;2.83;1.45;;;15.40;65.40;;;;;;5012478;28;20040;-78
2024/01/30 11:19:25;;;;;;;7.10;1.92;;;15.40;65.30;;;;;;5032284;28;20064;-78
2024/01/30 11:21:59;;;;;;;10.15;2.50;;;15.30;65.00;;;;;;5037616;28;20029;-78
2024/01/30 11:24:25;;;;;;;5.95;2.10;;;15.30;65.10;;;;;;5028201;28;20079;-78
2024/01/30 11:27:02;;;;;;;3.60;1.40;;;15.30;65.10;;;;;;5024879;28;20431;-78
2024/01/30 11:29:29;;;;;;;7.10;2.45;;;15.20;64.90;;;;;;5021102;28;20037;-77
2024/01/30 11:32:00;;;;;;;6.95;2.05;;;15.10;64.80;;;;;;5030765;28;20029;-79
2024/01/30 11:34:29;;;;;;;;;;;15.10;64.80;;;;;;5001877;28;20139;-78
2024/01/30 11:37:03;;;;;;;3.72;1.40;;;15.10;64.80;;;;;;5017057;28;19924;-79
2024/01/30 11:39:30;;;;;;;2.97;1.50;;;15.10;64.90;;;;;;5018167;28;20029;-79
2024/01/30 11:41:58;;;;;;;5.20;2.03;;;15.10;64.90;;;;;;5022472;28;20049;-78
2024/01/30 11:44:25;;;;;;;5.68;1.58;;;15.10;64.90;;;;;;5040989;28;20036;-78
2024/01/30 11:46:52;;;;;;;5.97;2.30;;;15.10;64.90;;;;;;5031892;28;20130;-78
2024/01/30 11:49:18;;;;;;;4.03;1.65;;;15.10;64.80;;;;;;5035540;28;20793;-78
2024/01/30 11:51:48;;;;;;;4.25;1.42;;;15.00;64.60;;;;;;5049190;28;20028;-78
2024/01/30 11:54:16;;;;;;;2.97;1.80;;;15.10;64.70;;;;;;5004551;28;20033;-78
2024/01/30 11:56:45;;;;;;;1.70;0.90;;;15.10;64.70;;;;;;5035696;28;20041;-78
2024/01/30 11:59:11;;;;;;;4.60;1.52;;;15.10;64.60;;;;;;5039108;28;20032;-79
2024/01/30 12:01:38;;;;;;;4.30;1.60;;;15.10;64.60;;;;;;5030892;28;20029;-79
2024/01/30 12:04:09;;;;;;;5.05;1.83;;;15.00;64.30;;;;;;5015407;28;20686;-80
2024/01/30 12:06:38;;;;;;;4.75;2.00;;;15.00;64.30;;;;;;5017668;28;20056;-79
2024/01/30 12:09:07;;;;;;;6.78;1.40;;;15.00;64.30;;;;;;5038987;28;20272;-78
2024/01/30 12:11:45;;;;;;;4.97;1.65;;;15.00;64.40;;;;;;5034484;28;20025;-77
2024/01/30 12:14:17;;;;;;;4.38;1.40;;;15.00;64.30;;;;;;5037229;28;20049;-79
2024/01/30 12:16:43;;;;;;;4.07;1.60;;;14.90;64.20;;;;;;5035421;28;20086;-79
2024/01/30 12:19:10;;;;;;;6.00;1.80;;;14.90;64.20;;;;;;5017898;28;20518;-78
2024/01/30 12:21:38;;;;;;;10.35;2.50;;;14.90;64.20;;;;;;5013259;28;20531;-78
2024/01/30 12:24:07;;;;;;;42.58;15.00;;;14.90;64.20;;;;;;5019284;28;20025;-78
2024/01/30 12:26:33;;;;;;;29.85;10.38;;;14.80;64.00;;;;;;5020241;28;20033;-78
2024/01/30 12:29:01;;;;;;;30.48;9.05;;;14.80;64.10;;;;;;5003447;28;21316;-76
2024/01/30 12:31:32;;;;;;;21.45;7.55;;;14.80;64.20;;;;;;5009238;28;20026;-78
2024/01/30 12:34:02;;;;;;;16.05;5.82;;;14.80;64.20;;;;;;5035167;28;20072;-77
2024/01/30 12:36:31;;;;;;;20.02;5.60;;;14.80;64.20;;;;;;5005114;28;20037;-78
2024/01/30 12:38:58;;;;;;;20.42;6.53;;;14.80;64.20;;;;;;5016931;28;20037;-77
2024/01/30 12:41:28;;;;;;;17.13;5.85;;;14.80;64.10;;;;;;5016343;28;20033;-77
2024/01/30 12:43:54;;;;;;;10.75;4.60;;;14.80;64.10;;;;;;5037522;28;20481;-77
2024/01/30 12:46:21;;;;;;;12.88;6.07;;;14.90;64.20;;;;;;5031673;28;20029;-79